createdAt,value
2019-03-18T00:02:28.486Z,4.83
2019-03-18T00:07:04.297Z,2.77
2019-03-18T00:11:40.044Z,0.72
2019-03-18T00:16:15.820Z,2.00
2019-03-18T00:20:51.621Z,2.42
2019-03-18T00:25:27.412Z,2.87
2019-03-18T00:30:03.160Z,1.37
2019-03-18T00:34:38.941Z,4.08
2019-03-18T00:39:14.692Z,1.75
2019-03-18T00:43:50.466Z,0.88
2019-03-18T00:48:26.217Z,1.02
2019-03-18T00:53:02.009Z,3.05
2019-03-18T00:57:37.795Z,1.70
2019-03-18T01:02:13.550Z,0.57
2019-03-18T01:06:49.317Z,1.50
2019-03-18T01:11:25.149Z,1.05
2019-03-18T01:16:00.920Z,0.88
2019-03-18T01:20:36.682Z,0.33
2019-03-18T01:25:12.725Z,0.53
2019-03-18T01:29:48.490Z,0.93
2019-03-18T01:34:24.257Z,1.70
2019-03-18T01:39:00.036Z,0.82
2019-03-18T01:43:35.785Z,0.75
2019-03-18T01:48:11.554Z,0.30
2019-03-18T01:52:47.310Z,0.30
2019-03-18T01:57:23.101Z,0.82
2019-03-18T02:01:58.916Z,0.50
2019-03-18T02:06:34.725Z,0.50
2019-03-18T02:11:10.521Z,0.95
2019-03-18T02:15:53.388Z,1.15
2019-03-18T02:20:23.753Z,1.95
2019-03-18T02:24:59.523Z,1.00
2019-03-18T02:29:35.269Z,1.12
2019-03-18T02:34:11.062Z,1.00
2019-03-18T02:38:46.861Z,1.15
2019-03-18T02:43:22.643Z,1.10
2019-03-18T02:47:58.502Z,1.20
2019-03-18T02:52:34.313Z,2.12
2019-03-18T02:57:10.086Z,1.52
2019-03-18T03:01:45.985Z,1.57
2019-03-18T03:06:21.790Z,4.92
2019-03-18T03:10:57.555Z,2.02
2019-03-18T03:15:33.297Z,3.17
2019-03-18T03:20:09.237Z,2.30
2019-03-18T03:24:44.994Z,0.65
2019-03-18T03:29:20.787Z,1.27
2019-03-18T03:33:56.535Z,1.90
2019-03-18T03:38:32.371Z,2.67
2019-03-18T03:43:08.129Z,1.80
2019-03-18T03:47:43.897Z,0.50
2019-03-18T03:52:19.665Z,1.30
2019-03-18T03:56:55.503Z,2.80
2019-03-18T04:01:31.252Z,0.80
2019-03-18T04:06:07.042Z,1.82
2019-03-18T04:10:42.862Z,1.32
2019-03-18T04:15:18.617Z,0.88
2019-03-18T04:19:54.369Z,1.37
2019-03-18T04:24:30.206Z,2.30
2019-03-18T04:29:05.949Z,0.60
2019-03-18T04:33:41.778Z,1.63
2019-03-18T04:38:17.526Z,2.20
2019-03-18T04:42:53.293Z,3.85
2019-03-18T04:47:29.045Z,2.70
2019-03-18T04:52:04.862Z,1.25
2019-03-18T05:01:14.636Z,1.87
2019-03-18T05:05:50.386Z,2.77
2019-03-18T05:10:26.168Z,1.77
2019-03-18T05:15:01.908Z,4.67
2019-03-18T05:19:37.673Z,5.42
2019-03-18T05:24:13.418Z,3.15
2019-03-18T05:28:49.193Z,2.72
2019-03-18T05:33:24.934Z,3.90
2019-03-18T05:38:00.693Z,5.03
2019-03-18T05:42:36.450Z,3.08
2019-03-18T05:47:12.209Z,3.17
2019-03-18T05:51:47.953Z,5.55
2019-03-18T05:56:23.709Z,3.17
2019-03-18T06:00:59.473Z,3.10
2019-03-18T06:05:35.318Z,5.62
2019-03-18T06:10:11.100Z,5.08
2019-03-18T06:14:46.868Z,3.77
2019-03-18T06:19:22.625Z,2.65
2019-03-18T06:23:58.405Z,4.55
2019-03-18T06:28:34.160Z,5.15
2019-03-18T06:33:09.914Z,3.33
2019-03-18T06:37:45.664Z,4.03
2019-03-18T06:42:21.429Z,7.93
2019-03-18T06:46:57.168Z,3.22
2019-03-18T06:51:32.935Z,4.30
2019-03-18T06:56:08.680Z,5.50
2019-03-18T07:00:44.451Z,4.17
2019-03-18T07:05:20.217Z,5.03
2019-03-18T07:09:55.996Z,6.28
2019-03-18T07:14:31.734Z,4.97
2019-03-18T07:19:07.580Z,7.37
2019-03-18T07:23:43.313Z,4.67
2019-03-18T07:28:19.089Z,4.55
2019-03-18T07:32:54.839Z,6.47
2019-03-18T07:37:30.613Z,7.85
2019-03-18T07:42:06.441Z,9.35
2019-03-18T07:46:42.202Z,7.20
2019-03-18T07:51:17.957Z,4.83
2019-03-18T07:55:53.901Z,5.70
2019-03-18T08:00:29.726Z,8.30
2019-03-18T08:05:06.400Z,5.83
2019-03-18T08:09:42.172Z,6.80
2019-03-18T08:14:18.101Z,7.53
2019-03-18T08:18:53.846Z,7.25
2019-03-18T08:23:29.611Z,6.45
2019-03-18T08:28:05.352Z,7.00
2019-03-18T08:32:41.125Z,9.85
2019-03-18T08:37:16.877Z,7.80
2019-03-18T08:41:52.645Z,8.45
2019-03-18T08:46:28.405Z,6.58
2019-03-18T08:51:04.177Z,13.50
2019-03-18T08:55:40.013Z,7.90
2019-03-18T09:00:17.080Z,7.22
2019-03-18T09:04:52.830Z,5.75
2019-03-18T09:09:28.592Z,9.25
2019-03-18T09:14:04.373Z,6.50
2019-03-18T09:18:40.145Z,7.03
2019-03-18T09:23:15.892Z,9.48
2019-03-18T09:27:51.665Z,7.05
2019-03-18T09:32:27.421Z,5.17
2019-03-18T09:37:03.265Z,4.67
2019-03-18T09:41:39.021Z,7.12
2019-03-18T09:46:14.857Z,5.17
2019-03-18T09:50:50.605Z,5.25
2019-03-18T09:55:26.381Z,4.83
2019-03-18T10:00:02.132Z,3.75
2019-03-18T10:04:37.892Z,5.35
2019-03-18T10:09:13.708Z,4.65
2019-03-18T10:13:49.492Z,6.03
2019-03-18T10:18:25.262Z,4.28
2019-03-18T10:23:02.996Z,4.78
2019-03-18T10:27:38.461Z,3.70
2019-03-18T10:32:14.238Z,3.15
2019-03-18T10:36:49.988Z,2.60
2019-03-18T10:41:25.753Z,2.47
2019-03-18T10:46:01.497Z,2.15
2019-03-18T10:50:37.256Z,2.67
2019-03-18T10:55:12.998Z,4.20
2019-03-18T10:59:48.764Z,1.37
2019-03-18T11:04:24.522Z,1.27
2019-03-18T11:09:00.297Z,3.17
2019-03-18T11:13:36.046Z,2.75
2019-03-18T11:18:11.812Z,2.62
2019-03-18T11:22:47.581Z,2.40
2019-03-18T11:27:23.347Z,4.70
2019-03-18T11:31:59.104Z,1.40
2019-03-18T11:36:34.864Z,1.90
2019-03-18T11:41:10.610Z,2.15
2019-03-18T11:45:46.372Z,3.00
2019-03-18T11:50:22.125Z,1.10
2019-03-18T11:54:57.896Z,1.52
2019-03-18T11:59:33.650Z,1.00
2019-03-18T12:04:09.417Z,1.20
2019-03-18T12:08:45.167Z,1.82
2019-03-18T12:13:20.935Z,0.82
2019-03-18T12:17:56.677Z,0.98
2019-03-18T12:22:35.449Z,1.27
2019-03-18T12:27:09.919Z,0.68
2019-03-18T12:31:45.686Z,0.72
2019-03-18T12:36:21.422Z,1.52
2019-03-18T12:40:57.200Z,0.33
2019-03-18T12:45:32.957Z,0.60
2019-03-18T12:50:12.001Z,0.60
2019-03-18T12:54:47.749Z,3.27
2019-03-18T12:59:23.529Z,0.65
2019-03-18T13:03:59.281Z,2.33
2019-03-18T13:08:35.054Z,0.98
2019-03-18T13:13:10.793Z,0.98
2019-03-18T13:17:46.557Z,1.10
2019-03-18T13:22:22.309Z,1.00
2019-03-18T13:26:58.758Z,1.02
2019-03-18T13:31:34.621Z,1.50
2019-03-18T13:36:10.381Z,0.70
2019-03-18T13:40:46.207Z,0.40
2019-03-18T13:45:21.995Z,1.47
2019-03-18T13:49:57.753Z,0.98
2019-03-18T13:54:33.522Z,2.45
2019-03-18T13:59:09.269Z,0.53
2019-03-18T14:03:45.046Z,1.62
2019-03-18T14:08:20.796Z,0.70
2019-03-18T14:12:56.553Z,1.07
2019-03-18T14:17:32.300Z,1.02
2019-03-18T14:22:08.066Z,1.87
2019-03-18T14:26:43.818Z,1.47
2019-03-18T14:31:19.590Z,0.72
2019-03-18T14:35:56.260Z,0.70
2019-03-18T14:40:32.020Z,1.45
2019-03-18T14:45:09.969Z,1.12
2019-03-18T14:49:46.468Z,1.22
2019-03-18T14:54:22.347Z,1.72
2019-03-18T14:58:58.112Z,0.75
2019-03-18T15:03:33.852Z,0.82
2019-03-18T15:08:09.628Z,1.05
2019-03-18T15:12:45.368Z,1.00
2019-03-18T15:17:21.153Z,0.40
2019-03-18T15:21:58.648Z,2.42
2019-03-18T15:26:34.380Z,2.75
2019-03-18T15:31:10.125Z,1.65
2019-03-18T15:35:45.894Z,0.47
2019-03-18T15:40:21.708Z,1.27
2019-03-18T15:44:57.469Z,2.72
2019-03-18T15:49:33.330Z,0.78
2019-03-18T15:54:09.092Z,1.35
2019-03-18T15:58:44.842Z,0.30
2019-03-18T16:03:20.618Z,0.40
2019-03-18T16:07:56.361Z,0.93
2019-03-18T16:12:32.142Z,1.57
2019-03-18T16:17:07.894Z,0.85
2019-03-18T16:21:43.650Z,0.80
2019-03-18T16:26:19.401Z,1.90
2019-03-18T16:30:55.175Z,1.55
2019-03-18T16:35:30.918Z,1.77
2019-03-18T16:40:07.534Z,1.52
2019-03-18T16:44:43.332Z,1.52
2019-03-18T16:49:19.098Z,0.80
2019-03-18T16:53:54.837Z,1.65
2019-03-18T16:58:30.611Z,1.22
2019-03-18T17:03:06.376Z,1.92
2019-03-18T17:07:42.161Z,3.92
2019-03-18T17:12:17.910Z,2.00
2019-03-18T17:16:53.709Z,3.02
2019-03-18T17:21:29.916Z,6.00
2019-03-18T17:26:06.351Z,1.65
2019-03-18T17:30:42.232Z,1.25
2019-03-18T17:35:18.181Z,1.35
2019-03-18T17:39:54.021Z,0.40
2019-03-18T17:44:29.851Z,2.05
2019-03-18T17:49:05.706Z,2.58
2019-03-18T17:53:41.498Z,12.63
2019-03-18T17:58:17.313Z,5.00
2019-03-18T18:02:53.261Z,3.10
2019-03-18T18:07:29.085Z,1.65
2019-03-18T18:12:05.066Z,1.50
2019-03-18T18:16:40.861Z,1.98
2019-03-18T18:21:16.643Z,2.52
2019-03-18T18:25:52.652Z,3.67
2019-03-18T18:30:28.434Z,2.85
2019-03-18T18:35:04.666Z,1.72
2019-03-18T18:39:40.447Z,3.40
2019-03-18T18:44:16.224Z,10.15
2019-03-18T18:48:52.041Z,6.72
2019-03-18T18:53:31.744Z,4.25
2019-03-18T18:58:07.529Z,3.50
2019-03-18T19:02:43.435Z,3.30
2019-03-18T19:07:19.276Z,6.08
2019-03-18T19:11:55.076Z,2.70
2019-03-18T19:16:30.904Z,1.77
2019-03-18T19:21:06.652Z,3.30
2019-03-18T19:25:42.840Z,1.57
2019-03-18T19:30:19.141Z,2.33
2019-03-18T19:34:57.133Z,3.00
2019-03-18T19:39:32.989Z,5.40
2019-03-18T19:44:08.820Z,17.52
2019-03-18T19:48:44.625Z,25.90
2019-03-18T19:53:20.521Z,3.58
2019-03-18T19:57:56.297Z,2.17
2019-03-18T20:02:32.154Z,5.17
2019-03-18T20:07:08.300Z,1.70
2019-03-18T20:11:44.124Z,0.80
2019-03-18T20:16:19.873Z,1.87
2019-03-18T20:20:56.940Z,1.87
2019-03-18T20:25:32.949Z,3.12
2019-03-18T20:30:10.694Z,2.80
2019-03-18T20:34:46.446Z,2.17
2019-03-18T20:39:22.234Z,2.85
2019-03-18T20:43:57.997Z,3.30
2019-03-18T20:48:33.800Z,1.92
2019-03-18T20:53:09.641Z,3.33
2019-03-18T20:57:45.425Z,2.65
2019-03-18T21:02:21.185Z,3.62
2019-03-18T21:06:59.473Z,6.37
2019-03-18T21:11:34.408Z,3.17
2019-03-18T21:16:29.348Z,2.58
2019-03-18T21:21:05.452Z,3.12
2019-03-18T21:25:41.248Z,2.27
2019-03-18T21:30:17.029Z,3.30
2019-03-18T21:34:52.803Z,4.55
2019-03-18T21:39:28.560Z,4.90
2019-03-18T21:44:04.537Z,4.28
2019-03-18T21:48:40.305Z,7.30
2019-03-18T21:53:16.081Z,4.30
2019-03-18T21:57:51.835Z,4.70
2019-03-18T22:02:27.633Z,4.70
2019-03-18T22:07:03.409Z,4.70
2019-03-18T22:11:39.230Z,3.80
2019-03-18T22:16:14.960Z,3.83
2019-03-18T22:20:50.732Z,4.25
2019-03-18T22:25:26.502Z,5.22
2019-03-18T22:30:02.262Z,3.67
2019-03-18T22:34:38.023Z,4.00
2019-03-18T22:39:13.789Z,4.55
2019-03-18T22:43:49.569Z,4.00
2019-03-18T22:48:25.341Z,5.53
2019-03-18T22:53:01.093Z,3.85
2019-03-18T22:57:36.865Z,2.98
2019-03-18T23:02:12.617Z,5.22
2019-03-18T23:06:48.397Z,3.45
2019-03-18T23:11:24.145Z,3.37
2019-03-18T23:15:59.912Z,3.58
2019-03-18T23:20:35.673Z,3.42
2019-03-18T23:25:11.505Z,3.95
2019-03-18T23:29:47.286Z,2.67
2019-03-18T23:34:23.053Z,4.27
2019-03-18T23:38:58.796Z,3.15
2019-03-18T23:43:34.569Z,5.85
2019-03-18T23:48:10.329Z,2.92
2019-03-18T23:52:46.087Z,2.77
2019-03-18T23:57:21.831Z,2.95
